Time;durP1;ratioP1;P1;durP2;ratioP2;P2;SDS_P1;SDS_P2;PMS_P1;PMS_P2;Temp;Humidity;BMP_temperature;BMP_pressure;BME280_temperature;BME280_humidity;BME280_pressure;Samples;Min_cycle;Max_cycle;Signal;HPM_P1;HPM_P2
2021/07/02 00:02:16;;;;;;;36.70;25.63;;;;;;;;;;5054631;28;20400;-72
2021/07/02 00:04:42;;;;;;;36.43;27.10;;;;;;;;;;5055079;28;20824;-75
2021/07/02 00:07:08;;;;;;;42.10;28.27;;;;;;;;;;5054243;28;20439;-72
2021/07/02 00:09:34;;;;;;;39.47;27.27;;;;;;;;;;5054784;28;20472;-72
2021/07/02 00:12:01;;;;;;;40.50;27.00;;;;;;;;;;5054791;28;20406;-74
2021/07/02 00:14:27;;;;;;;33.70;26.20;;;;;;;;;;5054669;28;20926;-72
2021/07/02 00:16:53;;;;;;;37.33;25.57;;;;;;;;;;5054126;28;20524;-73
2021/07/02 00:19:19;;;;;;;34.23;24.90;;;;;;;;;;5054333;28;20430;-74
2021/07/02 00:21:45;;;;;;;34.60;26.20;;;;;;;;;;5054452;28;20493;-74
2021/07/02 00:24:11;;;;;;;34.53;24.00;;;;;;;;;;5054396;28;20416;-72
2021/07/02 00:26:38;;;;;;;36.13;25.20;;;;;;;;;;5054374;28;20737;-73
2021/07/02 00:29:04;;;;;;;38.57;26.10;;;;;;;;;;5054413;28;20435;-74
2021/07/02 00:31:30;;;;;;;36.53;26.03;;;;;;;;;;5054275;28;20578;-73
2021/07/02 00:33:56;;;;;;;38.57;24.07;;;;;;;;;;5054734;28;20418;-72
2021/07/02 00:36:22;;;;;;;40.43;25.87;;;;;;;;;;5054431;28;20894;-73
2021/07/02 00:38:48;;;;;;;33.27;24.23;;;;;;;;;;5053877;28;20485;-72
2021/07/02 00:41:14;;;;;;;38.30;23.77;;;;;;;;;;5054327;28;20404;-72
2021/07/02 00:43:53;;;;;;;32.93;25.00;;;;;;;;;;5054184;28;20553;-74
2021/07/02 00:46:19;;;;;;;32.77;24.80;;;;;;;;;;5054205;28;20414;-72
2021/07/02 00:48:45;;;;;;;30.93;24.03;;;;;;;;;;5053528;28;20488;-72
2021/07/02 00:51:12;;;;;;;34.83;24.37;;;;;;;;;;5053943;28;20918;-73
2021/07/02 00:53:39;;;;;;;39.73;24.53;;;;;;;;;;5053754;28;20760;-73
2021/07/02 00:56:05;;;;;;;42.50;26.30;;;;;;;;;;5054089;28;20943;-73
2021/07/02 00:58:34;;;;;;;34.80;24.20;;;;;;;;;;5053248;28;20431;-73
2021/07/02 01:01:01;;;;;;;32.93;25.50;;;;;;;;;;5053790;28;20407;-74
2021/07/02 01:03:27;;;;;;;25.83;21.73;;;;;;;;;;5053708;28;20435;-73
2021/07/02 01:05:54;;;;;;;32.13;23.53;;;;;;;;;;5053503;28;20411;-75
2021/07/02 01:08:20;;;;;;;32.67;22.83;;;;;;;;;;5052973;28;20415;-74
2021/07/02 01:10:46;;;;;;;31.70;22.20;;;;;;;;;;5053681;28;20454;-74
2021/07/02 01:13:12;;;;;;;27.87;20.80;;;;;;;;;;5053316;28;20423;-72
2021/07/02 01:15:38;;;;;;;30.73;21.37;;;;;;;;;;5053331;28;20459;-73
2021/07/02 01:18:08;;;;;;;28.30;20.50;;;;;;;;;;5052589;28;20412;-73
2021/07/02 01:20:34;;;;;;;26.20;19.83;;;;;;;;;;5053174;28;20481;-72
2021/07/02 01:23:00;;;;;;;32.63;19.70;;;;;;;;;;5053271;28;20446;-72
2021/07/02 01:25:30;;;;;;;22.93;17.90;;;;;;;;;;5052736;28;20507;-74
2021/07/02 01:27:56;;;;;;;28.53;17.20;;;;;;;;;;5052686;28;20479;-73
2021/07/02 01:30:22;;;;;;;28.60;18.07;;;;;;;;;;5053328;28;20438;-73
2021/07/02 01:32:48;;;;;;;29.10;18.43;;;;;;;;;;5053174;28;20419;-73
2021/07/02 01:35:15;;;;;;;28.47;19.50;;;;;;;;;;5053240;28;20478;-72
2021/07/02 01:37:41;;;;;;;29.73;19.17;;;;;;;;;;5052829;28;20412;-72
2021/07/02 01:40:07;;;;;;;21.87;18.33;;;;;;;;;;5052970;28;20431;-73
2021/07/02 01:42:34;;;;;;;28.30;18.40;;;;;;;;;;5052996;28;20412;-73
2021/07/02 01:45:00;;;;;;;22.90;16.70;;;;;;;;;;5053178;28;20470;-73
2021/07/02 01:47:26;;;;;;;23.00;17.80;;;;;;;;;;5052522;28;20422;-73
2021/07/02 01:49:52;;;;;;;31.10;18.13;;;;;;;;;;5052928;28;20442;-73
2021/07/02 01:52:18;;;;;;;24.40;18.33;;;;;;;;;;5052901;28;20418;-73
2021/07/02 01:54:44;;;;;;;25.37;19.60;;;;;;;;;;5052876;28;20474;-72
2021/07/02 01:57:13;;;;;;;24.10;16.50;;;;;;;;;;5052567;28;20445;-73
2021/07/02 01:59:39;;;;;;;26.07;17.80;;;;;;;;;;5052686;28;20455;-75
2021/07/02 02:02:05;;;;;;;26.53;17.37;;;;;;;;;;5052353;28;20824;-72
2021/07/02 02:04:31;;;;;;;23.73;17.30;;;;;;;;;;5052826;28;20422;-73
2021/07/02 02:06:57;;;;;;;22.40;15.90;;;;;;;;;;5052386;28;20418;-72
2021/07/02 02:09:23;;;;;;;27.73;18.47;;;;;;;;;;5052636;28;20823;-74
2021/07/02 02:11:49;;;;;;;24.50;18.03;;;;;;;;;;5052632;28;20476;-73
2021/07/02 02:14:15;;;;;;;21.40;16.17;;;;;;;;;;5052521;28;20492;-73
2021/07/02 02:16:42;;;;;;;25.40;17.73;;;;;;;;;;5052051;28;20810;-74
2021/07/02 02:19:08;;;;;;;28.53;18.60;;;;;;;;;;5052922;28;20933;-74
2021/07/02 02:21:34;;;;;;;25.60;18.93;;;;;;;;;;5052522;28;20776;-72
2021/07/02 02:24:00;;;;;;;21.80;17.37;;;;;;;;;;5052713;28;20513;-72
2021/07/02 02:26:26;;;;;;;23.53;17.13;;;;;;;;;;5052411;28;20465;-73
2021/07/02 02:28:52;;;;;;;26.20;18.33;;;;;;;;;;5051951;28;20446;-73
2021/07/02 02:31:18;;;;;;;27.23;18.53;;;;;;;;;;5052618;28;20406;-71
2021/07/02 02:33:44;;;;;;;28.30;20.70;;;;;;;;;;5052374;28;20945;-73
2021/07/02 02:36:10;;;;;;;27.23;19.93;;;;;;;;;;5052338;28;20462;-73
2021/07/02 02:38:36;;;;;;;28.20;20.10;;;;;;;;;;5055501;28;20471;-74
2021/07/02 02:41:03;;;;;;;27.70;19.47;;;;;;;;;;5056676;28;20405;-74
2021/07/02 02:43:29;;;;;;;31.80;23.67;;;;;;;;;;5056653;28;20410;-74
2021/07/02 02:45:55;;;;;;;35.53;21.20;;;;;;;;;;5055049;28;20421;-72
2021/07/02 02:48:21;;;;;;;29.60;21.57;;;;;;;;;;5055867;28;20433;-72
2021/07/02 02:50:47;;;;;;;31.03;21.50;;;;;;;;;;5056237;28;20752;-72
2021/07/02 02:53:13;;;;;;;30.50;21.27;;;;;;;;;;5056166;28;20418;-72
2021/07/02 02:55:39;;;;;;;27.93;21.43;;;;;;;;;;5056205;28;20488;-72
2021/07/02 02:58:05;;;;;;;32.03;22.10;;;;;;;;;;5055770;28;20449;-73
2021/07/02 03:00:31;;;;;;;31.17;21.30;;;;;;;;;;5056043;28;20468;-73
2021/07/02 03:02:57;;;;;;;31.97;20.83;;;;;;;;;;5056042;28;20419;-73
2021/07/02 03:05:23;;;;;;;30.67;22.23;;;;;;;;;;5055941;28;20422;-75
2021/07/02 03:07:52;;;;;;;33.03;22.97;;;;;;;;;;5054033;28;20426;-73
2021/07/02 03:10:19;;;;;;;29.83;20.73;;;;;;;;;;5055813;28;20530;-73
2021/07/02 03:12:45;;;;;;;29.07;21.67;;;;;;;;;;5055605;28;20493;-72
2021/07/02 03:15:13;;;;;;;31.23;21.40;;;;;;;;;;5055728;28;20520;-74
2021/07/02 03:17:41;;;;;;;31.00;21.00;;;;;;;;;;5054221;28;20530;-73
2021/07/02 03:20:08;;;;;;;33.03;20.33;;;;;;;;;;5055877;28;20433;-72
2021/07/02 03:22:34;;;;;;;30.20;20.90;;;;;;;;;;5055581;28;20410;-74
2021/07/02 03:25:00;;;;;;;26.63;20.70;;;;;;;;;;5055855;28;20410;-73
2021/07/02 03:27:26;;;;;;;28.47;20.20;;;;;;;;;;5055266;28;20417;-74
2021/07/02 03:29:52;;;;;;;33.13;20.80;;;;;;;;;;5055561;28;20440;-74
2021/07/02 03:32:19;;;;;;;30.10;20.37;;;;;;;;;;5055643;28;20409;-73
2021/07/02 03:34:47;;;;;;;37.63;20.70;;;;;;;;;;5055208;28;20507;-74
2021/07/02 03:37:15;;;;;;;29.60;20.50;;;;;;;;;;5055332;28;20422;-74
2021/07/02 03:39:41;;;;;;;29.20;19.73;;;;;;;;;;5055722;28;20813;-74
2021/07/02 03:42:07;;;;;;;25.73;19.40;;;;;;;;;;5055257;28;20414;-75
2021/07/02 03:44:33;;;;;;;29.20;18.73;;;;;;;;;;5055424;28;20417;-73
2021/07/02 03:46:59;;;;;;;26.50;20.07;;;;;;;;;;5054623;28;20422;-72
2021/07/02 03:49:26;;;;;;;29.03;19.47;;;;;;;;;;5054524;28;20446;-74
2021/07/02 03:51:52;;;;;;;25.30;19.60;;;;;;;;;;5054942;28;20898;-74
2021/07/02 03:54:18;;;;;;;29.83;18.80;;;;;;;;;;5055206;28;20761;-74
2021/07/02 03:59:29;;;;;;;28.07;19.50;;;;;;;;;;5054777;28;20511;-73
2021/07/02 04:01:55;;;;;;;26.73;19.90;;;;;;;;;;5054711;28;20407;-74
2021/07/02 04:04:22;;;;;;;29.30;19.30;;;;;;;;;;5055035;28;20432;-74
2021/07/02 04:06:48;;;;;;;28.50;20.20;;;;;;;;;;5054257;28;20407;-73
2021/07/02 04:09:14;;;;;;;27.93;19.83;;;;;;;;;;5054384;28;20430;-75
2021/07/02 04:11:40;;;;;;;30.00;22.40;;;;;;;;;;5054795;28;20413;-73
2021/07/02 04:14:06;;;;;;;27.30;20.30;;;;;;;;;;5054674;28;20413;-73
2021/07/02 04:16:32;;;;;;;27.30;20.07;;;;;;;;;;5054304;28;20478;-72
2021/07/02 04:18:58;;;;;;;34.20;21.57;;;;;;;;;;5054325;28;20441;-74
2021/07/02 04:21:24;;;;;;;29.30;21.30;;;;;;;;;;5054314;28;20545;-74
2021/07/02 04:23:50;;;;;;;25.70;19.13;;;;;;;;;;5054329;28;20497;-73
2021/07/02 04:26:16;;;;;;;25.43;18.73;;;;;;;;;;5054550;28;20879;-73
2021/07/02 04:28:42;;;;;;;22.40;17.20;;;;;;;;;;5053843;28;20454;-72
2021/07/02 04:31:08;;;;;;;23.53;18.10;;;;;;;;;;5054505;28;20409;-72
2021/07/02 04:33:35;;;;;;;22.23;17.20;;;;;;;;;;5054186;28;20910;-72
2021/07/02 04:36:01;;;;;;;23.73;17.33;;;;;;;;;;5054015;28;20461;-72
2021/07/02 04:38:27;;;;;;;22.33;16.60;;;;;;;;;;5053769;28;20771;-74
2021/07/02 04:40:53;;;;;;;21.47;16.77;;;;;;;;;;5054076;28;20397;-72
2021/07/02 04:43:19;;;;;;;22.30;17.17;;;;;;;;;;5054288;28;20411;-73
2021/07/02 04:45:45;;;;;;;24.60;18.67;;;;;;;;;;5054006;28;20522;-74
2021/07/02 04:48:11;;;;;;;23.00;17.13;;;;;;;;;;5053596;28;20422;-74
2021/07/02 04:50:37;;;;;;;24.73;16.43;;;;;;;;;;5052334;28;20457;-73
2021/07/02 04:53:03;;;;;;;21.43;16.70;;;;;;;;;;5054017;28;20422;-74
2021/07/02 04:55:29;;;;;;;19.47;15.10;;;;;;;;;;5053537;28;20459;-72
2021/07/02 04:57:55;;;;;;;21.77;16.93;;;;;;;;;;5053321;28;20427;-73
2021/07/02 05:00:21;;;;;;;28.80;16.80;;;;;;;;;;5052624;28;20457;-72
2021/07/02 05:02:47;;;;;;;23.80;16.80;;;;;;;;;;5053896;28;20440;-72
2021/07/02 05:05:13;;;;;;;22.10;16.87;;;;;;;;;;5053415;28;20933;-73
2021/07/02 05:07:39;;;;;;;19.90;15.40;;;;;;;;;;5052994;28;20505;-73
2021/07/02 05:10:06;;;;;;;19.53;16.20;;;;;;;;;;5053573;28;20438;-72
2021/07/02 05:12:33;;;;;;;23.47;16.40;;;;;;;;;;5053610;28;20818;-71
2021/07/02 05:14:59;;;;;;;19.73;15.17;;;;;;;;;;5053325;28;20457;-73
2021/07/02 05:17:26;;;;;;;20.67;16.20;;;;;;;;;;5053009;28;20415;-74
2021/07/02 05:19:52;;;;;;;18.93;14.30;;;;;;;;;;5052820;28;20430;-73
2021/07/02 05:22:21;;;;;;;23.80;15.90;;;;;;;;;;5053607;28;20902;-73
2021/07/02 05:24:48;;;;;;;19.27;15.87;;;;;;;;;;5053266;28;20826;-73
2021/07/02 05:27:14;;;;;;;19.40;15.37;;;;;;;;;;5052866;28;20423;-73
2021/07/02 05:29:41;;;;;;;21.57;14.83;;;;;;;;;;5053155;28;20555;-74
2021/07/02 05:32:07;;;;;;;18.90;15.67;;;;;;;;;;5053015;28;20419;-73
2021/07/02 05:34:33;;;;;;;17.00;15.20;;;;;;;;;;5052658;28;20608;-73
2021/07/02 05:37:00;;;;;;;19.57;16.37;;;;;;;;;;5052668;28;20412;-73
2021/07/02 05:39:26;;;;;;;25.37;18.33;;;;;;;;;;5052811;28;20434;-75
2021/07/02 05:41:52;;;;;;;23.37;19.43;;;;;;;;;;5052763;28;20497;-73
2021/07/02 05:44:18;;;;;;;24.30;18.20;;;;;;;;;;5052680;28;20430;-73
2021/07/02 05:46:44;;;;;;;26.30;17.90;;;;;;;;;;5052460;28;20415;-73
2021/07/02 05:49:11;;;;;;;25.07;18.47;;;;;;;;;;5052613;28;20438;-74
2021/07/02 05:51:37;;;;;;;24.90;19.20;;;;;;;;;;5052872;28;20415;-73
2021/07/02 05:54:04;;;;;;;22.83;19.13;;;;;;;;;;5052507;28;20407;-74
2021/07/02 05:56:30;;;;;;;20.37;17.37;;;;;;;;;;5052622;28;20469;-75
2021/07/02 05:58:57;;;;;;;23.83;17.20;;;;;;;;;;5052334;28;20534;-74
2021/07/02 06:01:23;;;;;;;20.80;15.97;;;;;;;;;;5052715;28;20422;-73
2021/07/02 06:03:49;;;;;;;20.13;15.00;;;;;;;;;;5052341;28;20880;-72
2021/07/02 06:06:16;;;;;;;16.67;14.90;;;;;;;;;;5052423;28;20934;-72
2021/07/02 06:08:41;;;;;;;21.47;16.47;;;;;;;;;;5052198;28;20431;-72
2021/07/02 06:11:08;;;;;;;19.63;14.90;;;;;;;;;;5052542;28;20848;-73
2021/07/02 06:13:34;;;;;;;18.10;14.97;;;;;;;;;;5052331;28;20419;-72
2021/07/02 06:16:00;;;;;;;18.37;14.67;;;;;;;;;;5050050;28;20482;-74
2021/07/02 06:18:26;;;;;;;19.93;15.57;;;;;;;;;;5051634;28;20876;-74
2021/07/02 06:20:52;;;;;;;17.20;13.87;;;;;;;;;;5052351;28;20408;-73
2021/07/02 06:23:22;;;;;;;22.17;14.53;;;;;;;;;;5052561;28;20423;-73
2021/07/02 06:25:48;;;;;;;19.60;14.40;;;;;;;;;;5052203;28;20415;-72
2021/07/02 06:28:14;;;;;;;19.07;15.07;;;;;;;;;;5051907;28;20439;-73
2021/07/02 06:30:42;;;;;;;20.40;16.40;;;;;;;;;;5052428;28;20520;-74
2021/07/02 06:33:08;;;;;;;16.53;14.73;;;;;;;;;;5052235;28;20419;-75
2021/07/02 06:35:34;;;;;;;20.23;15.63;;;;;;;;;;5052436;28;20554;-74
2021/07/02 06:38:00;;;;;;;17.13;14.60;;;;;;;;;;5052037;28;20462;-74
2021/07/02 06:40:26;;;;;;;17.70;14.43;;;;;;;;;;5051783;28;20467;-74
2021/07/02 06:42:52;;;;;;;16.50;14.73;;;;;;;;;;5052516;28;20412;-73
2021/07/02 06:45:18;;;;;;;15.63;13.60;;;;;;;;;;5047892;28;20421;-71
2021/07/02 06:47:56;;;;;;;19.80;14.17;;;;;;;;;;5047280;28;20506;-72
2021/07/02 06:50:22;;;;;;;16.43;14.30;;;;;;;;;;5041358;28;20459;-72
2021/07/02 06:52:48;;;;;;;18.43;14.77;;;;;;;;;;5047680;28;20462;-72
2021/07/02 06:55:14;;;;;;;17.83;15.60;;;;;;;;;;5048236;28;20459;-72
2021/07/02 06:57:40;;;;;;;22.03;15.53;;;;;;;;;;5047799;28;20514;-72
2021/07/02 07:00:07;;;;;;;17.63;13.93;;;;;;;;;;5048312;28;20449;-72
2021/07/02 07:02:33;;;;;;;22.20;15.53;;;;;;;;;;5048526;28;21168;-72
2021/07/02 07:04:59;;;;;;;19.83;15.80;;;;;;;;;;5048420;28;20527;-74
2021/07/02 07:07:25;;;;;;;22.30;19.07;;;;;;;;;;5048028;28;20847;-74
2021/07/02 07:09:51;;;;;;;19.50;15.17;;;;;;;;;;5047569;28;20558;-73
2021/07/02 07:12:17;;;;;;;19.33;13.90;;;;;;;;;;5048035;28;20423;-73
2021/07/02 07:14:43;;;;;;;16.27;13.27;;;;;;;;;;5048168;28;20933;-73
2021/07/02 07:17:12;;;;;;;17.10;13.63;;;;;;;;;;5047943;28;20407;-74
2021/07/02 07:19:38;;;;;;;14.37;12.90;;;;;;;;;;5048162;28;20780;-73
2021/07/02 07:22:05;;;;;;;15.43;11.97;;;;;;;;;;5048163;28;20418;-73
2021/07/02 07:24:31;;;;;;;14.50;12.47;;;;;;;;;;5049749;28;20908;-72
2021/07/02 07:26:57;;;;;;;14.90;12.53;;;;;;;;;;5051284;28;20426;-73
2021/07/02 07:29:26;;;;;;;17.30;13.60;;;;;;;;;;5051397;28;20445;-74
2021/07/02 07:31:53;;;;;;;17.57;12.80;;;;;;;;;;5051627;28;20507;-73
2021/07/02 07:34:54;;;;;;;17.03;13.20;;;;;;;;;;5051629;28;20473;-73
2021/07/02 07:37:17;;;;;;;14.67;12.47;;;;;;;;;;5048069;28;20447;-73
2021/07/02 07:39:43;;;;;;;13.83;12.33;;;;;;;;;;5051747;28;20448;-73
2021/07/02 07:42:09;;;;;;;19.10;14.97;;;;;;;;;;5051474;28;20416;-73
2021/07/02 07:44:35;;;;;;;19.43;15.30;;;;;;;;;;5051222;28;20427;-73
2021/07/02 07:47:01;;;;;;;17.70;15.80;;;;;;;;;;5049539;28;20870;-72
2021/07/02 07:49:27;;;;;;;17.50;14.33;;;;;;;;;;5051494;28;20474;-72
2021/07/02 07:52:00;;;;;;;16.80;15.17;;;;;;;;;;5049708;28;20442;-73
2021/07/02 07:54:27;;;;;;;20.77;15.83;;;;;;;;;;5051485;28;20433;-72
2021/07/02 07:56:53;;;;;;;18.63;16.03;;;;;;;;;;5050903;28;20416;-74
2021/07/02 07:59:20;;;;;;;20.40;15.40;;;;;;;;;;5051125;28;20550;-74
2021/07/02 08:01:47;;;;;;;17.23;15.43;;;;;;;;;;5050957;28;20415;-73
2021/07/02 08:04:14;;;;;;;17.10;15.27;;;;;;;;;;5050571;28;20450;-73
2021/07/02 08:06:43;;;;;;;15.90;14.30;;;;;;;;;;5050508;28;20509;-73
2021/07/02 08:09:10;;;;;;;17.80;14.77;;;;;;;;;;5050775;28;20439;-73
2021/07/02 08:11:36;;;;;;;15.70;14.00;;;;;;;;;;5047293;28;20599;-72
2021/07/02 08:14:02;;;;;;;15.97;14.10;;;;;;;;;;5050868;28;20415;-74
2021/07/02 08:16:28;;;;;;;17.07;13.80;;;;;;;;;;5049399;28;20471;-73
2021/07/02 08:18:54;;;;;;;14.47;12.97;;;;;;;;;;5039506;28;20447;-74
2021/07/02 08:21:20;;;;;;;15.57;13.80;;;;;;;;;;5050544;28;20432;-73
2021/07/02 08:23:46;;;;;;;14.60;13.10;;;;;;;;;;5050791;28;20779;-73
2021/07/02 08:26:13;;;;;;;13.10;11.70;;;;;;;;;;5050552;28;20430;-74
2021/07/02 08:31:24;;;;;;;15.47;13.13;;;;;;;;;;5050191;28;20457;-73
2021/07/02 08:33:50;;;;;;;14.57;11.70;;;;;;;;;;5050452;28;20423;-73
2021/07/02 08:36:16;;;;;;;15.13;13.17;;;;;;;;;;5050006;28;20458;-73
2021/07/02 08:38:43;;;;;;;12.50;11.30;;;;;;;;;;5050036;28;20501;-72
2021/07/02 08:41:12;;;;;;;15.13;13.10;;;;;;;;;;5050010;28;20469;-73
2021/07/02 08:43:40;;;;;;;14.03;12.63;;;;;;;;;;5050410;28;20467;-74
2021/07/02 08:46:06;;;;;;;13.20;11.90;;;;;;;;;;5050126;28;20832;-73
2021/07/02 08:48:33;;;;;;;13.30;11.90;;;;;;;;;;5049738;28;20466;-73
2021/07/02 08:51:00;;;;;;;12.23;11.03;;;;;;;;;;5050262;28;20499;-73
2021/07/02 08:53:28;;;;;;;16.53;13.50;;;;;;;;;;5050004;28;20419;-73
2021/07/02 08:55:54;;;;;;;16.90;13.83;;;;;;;;;;5050092;28;20455;-74
2021/07/02 08:58:24;;;;;;;15.20;13.43;;;;;;;;;;5049552;28;20431;-73
2021/07/02 09:00:50;;;;;;;16.77;13.77;;;;;;;;;;5049832;28;20408;-75
2021/07/02 09:03:26;;;;;;;16.60;14.47;;;;;;;;;;5049908;28;20418;-74
2021/07/02 09:05:53;;;;;;;15.07;13.47;;;;;;;;;;5049949;28;20484;-75
2021/07/02 09:08:19;;;;;;;17.07;14.87;;;;;;;;;;5049360;28;20502;-72
2021/07/02 09:10:46;;;;;;;16.97;15.17;;;;;;;;;;5049672;28;20915;-72
2021/07/02 09:13:12;;;;;;;19.40;14.80;;;;;;;;;;5049402;28;20422;-72
2021/07/02 09:15:45;;;;;;;17.70;15.43;;;;;;;;;;5049850;28;20470;-73
2021/07/02 09:18:12;;;;;;;15.90;12.90;;;;;;;;;;5049421;28;20424;-73
2021/07/02 09:20:42;;;;;;;14.77;13.20;;;;;;;;;;5049444;28;20441;-73
2021/07/02 09:23:10;;;;;;;13.83;12.40;;;;;;;;;;5049485;28;20511;-73
2021/07/02 09:25:37;;;;;;;14.07;12.00;;;;;;;;;;5049250;28;20422;-75
2021/07/02 09:28:05;;;;;;;13.57;12.17;;;;;;;;;;5049109;28;20427;-72
2021/07/02 09:30:38;;;;;;;13.77;12.37;;;;;;;;;;5049396;28;20442;-74
2021/07/02 09:33:05;;;;;;;12.73;11.53;;;;;;;;;;5049461;28;20416;-73
2021/07/02 09:35:34;;;;;;;13.20;11.80;;;;;;;;;;5049198;28;20463;-72
2021/07/02 09:38:02;;;;;;;14.30;12.60;;;;;;;;;;5049038;28;20504;-73
2021/07/02 09:40:30;;;;;;;13.43;12.03;;;;;;;;;;5036873;28;20423;-72
2021/07/02 09:43:09;;;;;;;13.70;12.27;;;;;;;;;;5048852;28;20465;-72
2021/07/02 09:45:45;;;;;;;12.97;11.67;;;;;;;;;;5049061;28;20787;-75
2021/07/02 09:48:12;;;;;;;14.03;12.83;;;;;;;;;;5047892;28;20529;-73
2021/07/02 09:50:42;;;;;;;12.97;11.60;;;;;;;;;;5048916;28;20441;-75
2021/07/02 09:53:11;;;;;;;13.23;11.93;;;;;;;;;;5048809;28;20459;-74
2021/07/02 09:55:53;;;;;;;11.50;10.40;;;;;;;;;;5047500;28;20471;-73
2021/07/02 09:58:21;;;;;;;12.70;10.67;;;;;;;;;;5048500;28;20459;-74
2021/07/02 10:00:55;;;;;;;11.57;10.47;;;;;;;;;;5048841;28;20839;-72
2021/07/02 10:03:25;;;;;;;15.00;11.67;;;;;;;;;;5048837;28;20416;-74
2021/07/02 10:05:53;;;;;;;12.67;11.37;;;;;;;;;;5048854;28;20434;-73
2021/07/02 10:08:20;;;;;;;13.13;11.30;;;;;;;;;;5049214;28;20502;-73
2021/07/02 10:10:46;;;;;;;19.73;11.10;;;;;;;;;;5048699;28;20542;-74
2021/07/02 10:13:12;;;;;;;12.47;11.30;;;;;;;;;;5048822;28;20830;-72
2021/07/02 10:15:41;;;;;;;10.57;9.57;;;;;;;;;;5047188;28;20839;-72
2021/07/02 10:18:11;;;;;;;10.27;9.27;;;;;;;;;;5047949;28;20419;-73
2021/07/02 10:20:37;;;;;;;10.17;9.30;;;;;;;;;;5048771;28;20428;-73
2021/07/02 10:23:03;;;;;;;9.50;8.70;;;;;;;;;;5048640;28;20408;-73
2021/07/02 10:25:30;;;;;;;8.53;7.83;;;;;;;;;;5048691;28;20781;-74
2021/07/02 10:27:56;;;;;;;8.33;7.63;;;;;;;;;;5048411;28;20927;-74
2021/07/02 10:30:23;;;;;;;10.03;8.20;;;;;;;;;;5046821;28;20523;-73
2021/07/02 10:32:50;;;;;;;8.03;7.23;;;;;;;;;;5048705;28;20411;-73
2021/07/02 10:35:16;;;;;;;8.73;8.00;;;;;;;;;;5048229;28;20487;-74
2021/07/02 10:37:44;;;;;;;9.17;8.27;;;;;;;;;;5048243;28;20419;-73
2021/07/02 10:40:29;;;;;;;8.90;8.20;;;;;;;;;;5048329;28;20498;-74
2021/07/02 10:43:12;;;;;;;8.33;7.53;;;;;;;;;;5048030;28;20411;-74
2021/07/02 10:45:38;;;;;;;8.50;7.70;;;;;;;;;;5048331;28;20842;-73
2021/07/02 10:48:04;;;;;;;8.80;8.20;;;;;;;;;;5048029;28;20912;-73
2021/07/02 10:50:34;;;;;;;9.60;8.73;;;;;;;;;;5048273;28;20507;-74
2021/07/02 10:53:19;;;;;;;7.87;7.33;;;;;;;;;;5047860;28;20426;-74
2021/07/02 10:55:45;;;;;;;8.37;7.73;;;;;;;;;;5038998;28;20990;-74
2021/07/02 10:58:11;;;;;;;8.10;7.40;;;;;;;;;;5049238;28;20463;-73
2021/07/02 11:00:57;;;;;;;9.07;8.27;;;;;;;;;;5052211;28;20467;-73
2021/07/02 11:03:25;;;;;;;8.40;7.80;;;;;;;;;;5050797;28;20997;-73
2021/07/02 11:05:51;;;;;;;8.90;8.00;;;;;;;;;;5052145;28;20412;-73
2021/07/02 11:08:36;;;;;;;8.30;7.70;;;;;;;;;;5051803;28;20453;-73
2021/07/02 11:11:02;;;;;;;7.30;6.80;;;;;;;;;;5050489;28;20792;-72
2021/07/02 11:13:28;;;;;;;9.00;8.30;;;;;;;;;;5051975;28;20528;-73
2021/07/02 11:16:04;;;;;;;8.70;7.90;;;;;;;;;;5049862;28;20466;-73
2021/07/02 11:18:40;;;;;;;8.17;7.57;;;;;;;;;;5047604;28;20994;-73
2021/07/02 11:21:14;;;;;;;8.10;7.40;;;;;;;;;;5051731;28;20776;-74
2021/07/02 11:23:41;;;;;;;7.90;7.20;;;;;;;;;;5051761;28;20510;-75
2021/07/02 11:26:09;;;;;;;7.17;6.43;;;;;;;;;;5051747;28;20423;-72
2021/07/02 11:28:42;;;;;;;7.23;6.63;;;;;;;;;;5051226;28;20481;-71
2021/07/02 11:31:09;;;;;;;7.13;6.53;;;;;;;;;;5051692;28;20412;-74
2021/07/02 11:33:35;;;;;;;7.20;6.70;;;;;;;;;;5051756;28;20898;-71
2021/07/02 11:36:01;;;;;;;7.70;7.10;;;;;;;;;;5051608;28;21180;-74
2021/07/02 11:38:28;;;;;;;6.37;5.80;;;;;;;;;;5051251;28;20422;-71
2021/07/02 11:40:58;;;;;;;6.90;6.30;;;;;;;;;;5051384;28;20443;-74
2021/07/02 11:43:27;;;;;;;7.30;6.80;;;;;;;;;;5050834;28;20498;-73
2021/07/02 11:45:54;;;;;;;7.30;6.60;;;;;;;;;;5051329;28;20427;-73
2021/07/02 11:48:20;;;;;;;7.07;6.37;;;;;;;;;;5050918;28;20908;-72
2021/07/02 11:50:48;;;;;;;6.80;6.30;;;;;;;;;;5045073;28;20443;-73
2021/07/02 11:53:27;;;;;;;7.30;6.77;;;;;;;;;;5045777;28;20438;-74
2021/07/02 11:56:09;;;;;;;7.73;6.77;;;;;;;;;;5050981;28;20459;-74
2021/07/02 11:58:37;;;;;;;7.07;6.30;;;;;;;;;;5050080;28;21068;-74
2021/07/02 12:01:12;;;;;;;6.50;6.00;;;;;;;;;;5050812;28;20423;-73
2021/07/02 12:03:38;;;;;;;7.53;6.97;;;;;;;;;;5049741;28;20419;-73
2021/07/02 12:06:05;;;;;;;7.00;6.40;;;;;;;;;;5050254;28;20455;-73
2021/07/02 12:08:32;;;;;;;6.87;6.37;;;;;;;;;;5050867;28;21218;-73
2021/07/02 12:11:00;;;;;;;7.13;6.63;;;;;;;;;;5050005;28;20428;-75
2021/07/02 12:13:26;;;;;;;7.17;6.57;;;;;;;;;;5050912;28;20422;-73
2021/07/02 12:16:12;;;;;;;6.30;5.80;;;;;;;;;;5050723;28;20471;-74
2021/07/02 12:18:39;;;;;;;6.70;6.20;;;;;;;;;;5045415;28;20907;-73
2021/07/02 12:21:07;;;;;;;8.20;6.40;;;;;;;;;;5050943;28;20772;-75
2021/07/02 12:23:38;;;;;;;6.37;5.73;;;;;;;;;;5050751;28;20799;-73
2021/07/02 12:26:08;;;;;;;6.37;5.87;;;;;;;;;;5050814;28;20792;-74
2021/07/02 12:28:52;;;;;;;6.20;5.70;;;;;;;;;;5050276;28;20787;-74
2021/07/02 12:31:21;;;;;;;6.13;5.63;;;;;;;;;;5050432;28;20416;-71
2021/07/02 12:33:47;;;;;;;6.07;5.57;;;;;;;;;;5050375;28;20411;-71
2021/07/02 12:36:14;;;;;;;6.77;6.17;;;;;;;;;;5050443;28;20562;-75
2021/07/02 12:38:58;;;;;;;6.33;5.83;;;;;;;;;;5050058;28;20407;-75
2021/07/02 12:41:24;;;;;;;5.90;5.50;;;;;;;;;;5049950;28;20411;-74
2021/07/02 12:43:50;;;;;;;7.80;7.03;;;;;;;;;;5050319;28;20819;-74
2021/07/02 12:46:16;;;;;;;6.17;5.67;;;;;;;;;;5050269;28;20815;-74
2021/07/02 12:48:43;;;;;;;6.60;6.10;;;;;;;;;;5050046;28;20436;-74
2021/07/02 12:51:10;;;;;;;6.70;6.20;;;;;;;;;;5048497;28;20432;-73
2021/07/02 12:56:21;;;;;;;6.67;6.17;;;;;;;;;;5050011;28;20505;-72
2021/07/02 12:58:47;;;;;;;5.77;5.37;;;;;;;;;;5049650;28;20466;-74
2021/07/02 13:01:13;;;;;;;6.60;6.00;;;;;;;;;;5049891;28;21023;-72
2021/07/02 13:03:39;;;;;;;6.57;5.97;;;;;;;;;;5050090;28;20411;-74
2021/07/02 13:06:15;;;;;;;8.27;6.33;;;;;;;;;;5049829;28;20420;-73
2021/07/02 13:08:41;;;;;;;6.60;6.00;;;;;;;;;;5049276;28;20785;-74
2021/07/02 13:11:17;;;;;;;7.53;6.83;;;;;;;;;;5049899;28;21034;-73
2021/07/02 13:13:44;;;;;;;7.07;6.47;;;;;;;;;;5049801;28;20450;-73
2021/07/02 13:16:11;;;;;;;7.37;6.20;;;;;;;;;;5049580;28;20471;-74
2021/07/02 13:18:38;;;;;;;7.70;6.90;;;;;;;;;;5049228;28;20447;-75
2021/07/02 13:21:12;;;;;;;6.67;6.07;;;;;;;;;;5048824;28;20473;-74
2021/07/02 13:23:51;;;;;;;9.87;7.93;;;;;;;;;;5049519;28;20515;-75
2021/07/02 13:26:20;;;;;;;7.50;6.80;;;;;;;;;;5049645;28;20415;-75
2021/07/02 13:28:47;;;;;;;7.50;6.80;;;;;;;;;;5049106;28;20451;-76
2021/07/02 13:31:19;;;;;;;7.10;6.40;;;;;;;;;;5049230;28;20430;-75
2021/07/02 13:33:57;;;;;;;7.70;6.80;;;;;;;;;;5049352;28;21236;-75
2021/07/02 13:36:30;;;;;;;7.90;6.77;;;;;;;;;;5049444;28;20608;-73
2021/07/02 13:39:04;;;;;;;6.73;6.10;;;;;;;;;;5049149;28;20439;-73
2021/07/02 13:41:30;;;;;;;7.50;6.33;;;;;;;;;;5049020;28;20461;-72
2021/07/02 13:43:59;;;;;;;7.10;6.40;;;;;;;;;;5049011;28;20422;-72
2021/07/02 13:46:30;;;;;;;6.70;5.97;;;;;;;;;;5049325;28;20415;-77
2021/07/02 13:48:56;;;;;;;6.63;5.90;;;;;;;;;;5048864;28;20442;-76
2021/07/02 13:51:22;;;;;;;6.93;6.23;;;;;;;;;;5048856;28;20419;-73
2021/07/02 13:53:48;;;;;;;7.90;6.33;;;;;;;;;;5049054;28;20423;-72
2021/07/02 13:56:14;;;;;;;7.60;6.80;;;;;;;;;;5048914;28;20494;-73
2021/07/02 13:58:40;;;;;;;7.20;6.60;;;;;;;;;;5048167;28;20439;-74
2021/07/02 14:01:06;;;;;;;6.87;6.17;;;;;;;;;;5048976;28;20412;-73
2021/07/02 14:03:32;;;;;;;8.67;6.80;;;;;;;;;;5049348;28;20451;-73
2021/07/02 14:05:58;;;;;;;8.63;7.83;;;;;;;;;;5048847;28;20919;-74
2021/07/02 14:08:24;;;;;;;7.60;6.67;;;;;;;;;;5048529;28;20419;-74
2021/07/02 14:10:50;;;;;;;7.53;6.83;;;;;;;;;;5048971;28;20881;-73
2021/07/02 14:13:16;;;;;;;9.00;8.10;;;;;;;;;;5048519;28;20545;-75
2021/07/02 14:15:42;;;;;;;8.30;7.50;;;;;;;;;;5048627;28;20566;-74
2021/07/02 14:18:08;;;;;;;7.77;7.07;;;;;;;;;;5048219;28;20427;-74
2021/07/02 14:20:35;;;;;;;8.70;7.20;;;;;;;;;;5048715;28;20485;-74
2021/07/02 14:23:01;;;;;;;7.60;6.50;;;;;;;;;;5048711;28;20772;-74
2021/07/02 14:25:28;;;;;;;6.90;6.30;;;;;;;;;;5048646;28;20423;-73
2021/07/02 14:27:55;;;;;;;7.53;6.83;;;;;;;;;;5048136;28;20442;-74
2021/07/02 14:30:21;;;;;;;8.43;7.07;;;;;;;;;;5048507;28;20947;-74
2021/07/02 14:32:47;;;;;;;9.37;7.87;;;;;;;;;;5049248;28;20411;-75
2021/07/02 14:35:17;;;;;;;8.57;7.77;;;;;;;;;;5052582;28;20819;-74